createdAt,value
2023-05-06T00:00:17.860Z,19.33
2023-05-06T00:02:48.418Z,15.73
2023-05-06T00:05:21.619Z,15.15
2023-05-06T00:07:51.884Z,15.95
2023-05-06T00:10:22.165Z,16.08
2023-05-06T00:12:52.385Z,17.60
2023-05-06T00:15:22.741Z,14.73
2023-05-06T00:17:53.531Z,14.73
2023-05-06T00:22:54.495Z,14.80
2023-05-06T00:25:25.111Z,18.98
2023-05-06T00:27:56.271Z,19.70
2023-05-06T00:32:58.425Z,15.50
2023-05-06T00:35:28.646Z,14.63
2023-05-06T00:38:15.177Z,14.02
2023-05-06T00:40:45.815Z,14.18
2023-05-06T00:43:16.150Z,14.07
2023-05-06T00:45:47.586Z,14.50
2023-05-06T00:48:19.814Z,15.47
2023-05-06T00:50:50.572Z,16.65
2023-05-06T00:53:24.243Z,15.48
2023-05-06T00:55:55.199Z,15.85
2023-05-06T00:58:25.679Z,14.70
2023-05-06T01:00:57.589Z,17.27
2023-05-06T01:03:28.513Z,15.40
2023-05-06T01:06:24.694Z,16.02
2023-05-06T01:09:03.975Z,16.92
2023-05-06T01:11:49.189Z,17.05
2023-05-06T01:14:43.865Z,21.85
2023-05-06T01:17:17.435Z,33.95
2023-05-06T01:19:55.678Z,26.08
2023-05-06T01:22:27.387Z,29.30
2023-05-06T01:24:57.714Z,24.48
2023-05-06T01:27:34.316Z,26.33
2023-05-06T01:30:08.045Z,18.88
2023-05-06T01:33:00.836Z,19.70
2023-05-06T01:35:52.450Z,20.42
2023-05-06T01:38:40.958Z,18.42
2023-05-06T01:41:16.787Z,20.50
2023-05-06T01:43:50.228Z,19.13
2023-05-06T01:46:26.601Z,16.95
2023-05-06T01:48:59.498Z,18.17
2023-05-06T01:51:30.443Z,17.02
2023-05-06T01:54:00.896Z,18.75
2023-05-06T01:56:34.622Z,17.90
2023-05-06T01:59:05.097Z,17.83
2023-05-06T02:01:35.704Z,17.87
2023-05-06T02:04:07.166Z,16.92
2023-05-06T02:06:38.801Z,19.48
2023-05-06T02:09:11.468Z,17.67
2023-05-06T02:11:46.703Z,17.08
2023-05-06T02:14:17.263Z,19.58
2023-05-06T02:16:48.044Z,18.43
2023-05-06T02:19:19.867Z,17.10
2023-05-06T02:21:50.455Z,18.00
2023-05-06T02:24:21.332Z,18.90
2023-05-06T02:26:52.017Z,18.55
2023-05-06T02:29:22.362Z,17.67
2023-05-06T02:31:54.900Z,17.93
2023-05-06T02:34:25.324Z,17.88
2023-05-06T02:36:57.518Z,18.23
2023-05-06T02:39:28.377Z,19.05
2023-05-06T02:41:59.387Z,20.98
2023-05-06T02:44:32.116Z,20.02
2023-05-06T02:47:03.037Z,19.83
2023-05-06T02:49:34.016Z,20.38
2023-05-06T02:54:36.765Z,18.58
2023-05-06T02:57:08.139Z,19.90
2023-05-06T02:59:39.953Z,18.00
2023-05-06T03:02:10.494Z,21.83
2023-05-06T03:04:41.009Z,21.03
2023-05-06T03:07:11.919Z,19.23
2023-05-06T03:09:43.192Z,19.75
2023-05-06T03:12:14.625Z,22.50
2023-05-06T03:14:45.115Z,19.98
2023-05-06T03:17:15.919Z,20.17
2023-05-06T03:19:47.080Z,21.60
2023-05-06T03:22:17.649Z,24.10
2023-05-06T03:24:49.704Z,20.77
2023-05-06T03:27:20.680Z,20.88
2023-05-06T03:29:55.846Z,20.00
2023-05-06T03:32:27.685Z,20.80
2023-05-06T03:37:29.742Z,19.77
2023-05-06T03:40:00.830Z,18.60
2023-05-06T03:45:03.145Z,18.20
2023-05-06T03:47:35.742Z,19.58
2023-05-06T03:50:08.168Z,22.05
2023-05-06T03:52:40.170Z,19.95
2023-05-06T03:55:11.880Z,20.42
2023-05-06T03:57:43.341Z,21.98
2023-05-06T04:00:15.188Z,22.23
2023-05-06T04:02:53.055Z,20.20
2023-05-06T04:05:33.597Z,20.63
2023-05-06T04:08:04.865Z,21.10
2023-05-06T04:10:35.303Z,21.40
2023-05-06T04:13:09.812Z,21.13
2023-05-06T04:15:46.497Z,21.35
2023-05-06T04:18:22.409Z,21.85
2023-05-06T04:21:02.652Z,20.48
2023-05-06T04:23:35.910Z,20.10
2023-05-06T04:26:07.897Z,21.02
2023-05-06T04:28:40.805Z,22.77
2023-05-06T04:31:13.393Z,20.50
2023-05-06T04:33:48.441Z,21.65
2023-05-06T04:36:23.064Z,21.80
2023-05-06T04:39:09.555Z,21.98
2023-05-06T04:41:40.867Z,23.65
2023-05-06T04:44:13.514Z,23.25
2023-05-06T04:46:48.986Z,23.70
2023-05-06T04:49:20.298Z,22.90
2023-05-06T04:51:51.260Z,24.50
2023-05-06T04:56:52.716Z,22.33
2023-05-06T04:59:24.196Z,33.70
2023-05-06T05:01:54.857Z,28.75
2023-05-06T05:04:25.113Z,22.92
2023-05-06T05:06:56.241Z,22.77
2023-05-06T05:09:27.329Z,20.40
2023-05-06T05:14:29.787Z,21.30
2023-05-06T11:24:02.919Z,22.38
2023-05-06T11:26:36.301Z,23.55
2023-05-06T11:29:07.339Z,25.25
2023-05-06T11:31:43.874Z,23.88
2023-05-06T11:34:16.840Z,24.67
2023-05-06T11:37:09.532Z,22.65
2023-05-06T11:39:41.021Z,26.95
2023-05-06T11:42:12.259Z,22.52
2023-05-06T11:47:12.943Z,22.92
2023-05-06T11:49:46.140Z,24.77
2023-05-06T11:52:16.952Z,25.08
2023-05-06T11:54:49.650Z,22.40
2023-05-06T11:57:22.963Z,24.40
2023-05-06T11:59:58.194Z,23.60
2023-05-06T12:02:28.852Z,24.63
2023-05-06T12:07:32.143Z,19.40
2023-05-06T12:10:06.894Z,22.17
2023-05-06T12:12:37.797Z,21.88
2023-05-06T12:15:09.832Z,19.77
2023-05-06T12:17:40.372Z,24.40
2023-05-06T12:20:13.757Z,20.23
2023-05-06T12:22:44.934Z,18.77
2023-05-06T12:25:19.058Z,24.88
2023-05-06T12:27:50.016Z,22.13
2023-05-06T12:30:33.010Z,19.73
2023-05-06T12:33:04.941Z,20.95
2023-05-06T12:35:36.082Z,19.38
2023-05-06T12:38:17.920Z,24.25
2023-05-06T12:40:56.551Z,21.30
2023-05-06T12:43:34.750Z,25.85
2023-05-06T12:46:12.249Z,24.65
2023-05-06T12:48:44.485Z,21.77
2023-05-06T12:51:22.442Z,25.60
2023-05-06T12:53:53.637Z,23.98
2023-05-06T12:56:24.910Z,24.55
2023-05-06T13:01:31.984Z,24.30
2023-05-06T13:06:34.475Z,28.23
2023-05-06T13:09:05.544Z,28.17
2023-05-06T13:11:36.050Z,31.25
2023-05-06T13:14:07.028Z,29.00
2023-05-06T13:16:38.490Z,24.77
2023-05-06T13:19:18.031Z,21.70
2023-05-06T13:21:55.581Z,22.65
2023-05-06T13:24:25.985Z,24.20
2023-05-06T13:26:56.277Z,25.88
2023-05-06T13:29:26.974Z,22.77
2023-05-06T13:31:58.229Z,24.83
2023-05-06T13:34:28.989Z,20.98
2023-05-06T13:36:59.972Z,24.42
2023-05-06T13:39:31.051Z,23.75
2023-05-06T13:44:32.056Z,29.25
2023-05-06T13:47:03.305Z,23.45
2023-05-06T13:52:08.201Z,28.50
2023-05-06T13:54:40.250Z,27.80
2023-05-06T13:57:11.028Z,34.13
2023-05-06T13:59:42.118Z,33.63
2023-05-06T14:02:15.270Z,33.80
2023-05-06T14:04:47.191Z,29.88
2023-05-06T14:07:18.254Z,30.17
2023-05-06T14:12:19.655Z,25.85
2023-05-06T14:14:50.393Z,24.67
2023-05-06T14:17:22.014Z,24.58
2023-05-06T14:19:53.112Z,23.77
2023-05-06T14:22:23.971Z,25.88
2023-05-06T14:24:54.888Z,23.00
2023-05-06T14:27:26.162Z,22.00
2023-05-06T14:29:58.236Z,20.80
2023-05-06T14:32:28.734Z,20.80
2023-05-06T14:34:59.403Z,20.67
2023-05-06T14:37:31.179Z,19.83
2023-05-06T14:40:02.264Z,19.45
2023-05-06T14:42:33.201Z,22.13
2023-05-06T14:45:04.479Z,21.95
2023-05-06T14:47:35.299Z,19.50
2023-05-06T14:50:06.558Z,16.73
2023-05-06T14:52:37.136Z,18.70
2023-05-06T14:55:10.294Z,19.42
2023-05-06T14:57:41.288Z,16.45
2023-05-06T15:00:13.024Z,17.95
2023-05-06T15:02:44.171Z,18.80
2023-05-06T15:05:15.744Z,15.55
2023-05-06T15:07:47.480Z,17.42
2023-05-06T15:10:17.952Z,16.80
2023-05-06T15:12:48.957Z,14.25
2023-05-06T15:15:19.913Z,15.18
2023-05-06T15:20:25.682Z,16.38
2023-05-06T15:22:56.766Z,13.40
2023-05-06T15:28:07.960Z,13.75
2023-05-06T15:30:41.436Z,14.23
2023-05-06T15:33:12.414Z,16.02
2023-05-06T15:35:43.295Z,15.82
2023-05-06T15:38:13.587Z,14.95
2023-05-06T15:40:45.413Z,12.87
2023-05-06T15:43:22.958Z,14.70
2023-05-06T15:45:54.608Z,14.93
2023-05-06T15:48:25.451Z,14.10
2023-05-06T15:50:56.343Z,12.93
2023-05-06T15:53:26.963Z,15.38
2023-05-06T15:56:07.232Z,12.77
2023-05-06T15:58:46.229Z,12.43
2023-05-06T16:01:20.793Z,14.50
2023-05-06T16:03:56.182Z,12.00
2023-05-06T16:06:27.196Z,10.60
2023-05-06T16:09:00.594Z,11.13
2023-05-06T16:11:31.869Z,10.57
2023-05-06T16:14:02.325Z,11.30
2023-05-06T16:16:33.398Z,10.10
2023-05-06T16:19:04.322Z,11.80
2023-05-06T16:21:34.739Z,12.88
2023-05-06T16:24:05.605Z,12.07
2023-05-06T16:26:36.464Z,11.77
2023-05-06T16:29:07.170Z,11.82
2023-05-06T16:31:38.450Z,9.53
2023-05-06T16:34:09.613Z,11.25
2023-05-06T16:36:40.150Z,10.90
2023-05-06T16:39:11.356Z,11.55
2023-05-06T16:41:41.681Z,11.27
2023-05-06T16:44:12.191Z,11.83
2023-05-06T16:46:42.388Z,11.40
2023-05-06T16:49:13.261Z,10.93
2023-05-06T16:51:44.363Z,10.90
2023-05-06T16:54:15.225Z,12.68
2023-05-06T16:56:52.174Z,12.30
2023-05-06T16:59:23.818Z,14.63
2023-05-06T17:04:27.062Z,13.15
2023-05-06T17:07:01.396Z,11.43
2023-05-06T17:09:32.141Z,13.82
2023-05-06T17:12:02.578Z,11.07
2023-05-06T17:14:34.279Z,12.97
2023-05-06T17:17:06.927Z,13.52
2023-05-06T17:19:37.329Z,15.25
2023-05-06T17:22:08.605Z,13.00
2023-05-06T17:24:39.039Z,13.52
2023-05-06T17:27:09.699Z,12.57
2023-05-06T17:29:40.478Z,12.80
2023-05-06T17:32:11.397Z,12.75
2023-05-06T17:34:42.115Z,14.50
2023-05-06T17:37:13.729Z,12.18
2023-05-06T17:39:44.687Z,13.18
2023-05-06T17:42:15.609Z,13.70
2023-05-06T17:44:46.503Z,14.98
2023-05-06T17:47:17.868Z,12.93
2023-05-06T17:49:48.902Z,14.07
2023-05-06T17:52:20.181Z,14.13
2023-05-06T17:55:06.291Z,12.63
2023-05-06T17:57:42.591Z,12.68
2023-05-06T18:00:13.737Z,12.52
2023-05-06T18:02:47.861Z,13.88
2023-05-06T18:05:19.915Z,13.85
2023-05-06T18:07:50.883Z,12.45
2023-05-06T18:10:22.619Z,16.17
2023-05-06T18:12:53.442Z,12.68
2023-05-06T18:15:24.300Z,13.02
2023-05-06T18:17:56.642Z,12.65
2023-05-06T18:20:27.688Z,15.48
2023-05-06T18:25:29.379Z,14.15
2023-05-06T18:28:02.364Z,13.73
2023-05-06T18:30:33.216Z,14.45
2023-05-06T18:33:04.284Z,15.65
2023-05-06T18:35:35.137Z,15.32
2023-05-06T18:38:05.802Z,15.95
2023-05-06T18:40:37.532Z,18.70
2023-05-06T18:43:11.565Z,21.75
2023-05-06T18:45:43.175Z,16.73
2023-05-06T18:48:15.040Z,16.60
2023-05-06T18:50:46.753Z,16.52
2023-05-06T18:53:18.278Z,17.17
2023-05-06T18:55:49.141Z,16.73
2023-05-06T18:58:21.315Z,15.27
2023-05-06T19:00:51.744Z,19.67
2023-05-06T19:03:22.341Z,21.73
2023-05-06T19:05:53.464Z,15.97
2023-05-06T19:08:24.072Z,19.70
2023-05-06T19:10:55.701Z,16.90
2023-05-06T19:13:26.426Z,16.58
2023-05-06T19:15:57.493Z,16.60
2023-05-06T19:21:00.719Z,17.40
2023-05-06T19:23:31.391Z,18.00
2023-05-06T19:26:01.908Z,20.33
2023-05-06T19:28:32.991Z,20.75
2023-05-06T19:31:11.552Z,21.38
2023-05-06T19:33:44.258Z,19.20
2023-05-06T19:36:14.567Z,21.02
2023-05-06T19:38:45.289Z,21.90
2023-05-06T19:41:16.203Z,23.38
2023-05-06T19:46:19.138Z,21.80
2023-05-06T19:48:49.515Z,18.88
2023-05-06T19:51:20.473Z,21.70
2023-05-06T19:53:51.823Z,20.05
2023-05-06T19:56:23.137Z,23.63
2023-05-06T20:01:27.587Z,20.50
2023-05-06T20:03:59.813Z,19.05
2023-05-06T20:06:32.260Z,20.00
2023-05-06T20:09:03.745Z,18.50
2023-05-06T20:11:35.016Z,21.83
2023-05-06T20:16:37.574Z,18.77
2023-05-06T20:19:07.997Z,20.52
2023-05-06T20:21:39.693Z,21.43
2023-05-06T20:24:10.128Z,22.88
2023-05-06T20:26:40.605Z,22.17
2023-05-06T20:29:12.362Z,20.50
2023-05-06T20:31:43.090Z,19.45
2023-05-06T20:34:13.482Z,20.07
2023-05-06T20:36:45.665Z,19.73
2023-05-06T20:39:16.561Z,22.52
2023-05-06T20:44:18.025Z,21.35
2023-05-06T20:49:23.077Z,19.55
2023-05-06T20:51:55.181Z,21.48
2023-05-06T20:54:26.110Z,21.60
2023-05-06T20:56:56.562Z,19.52
2023-05-06T20:59:27.806Z,19.02
2023-05-06T21:02:01.785Z,20.60
2023-05-06T21:04:32.964Z,27.25
2023-05-06T21:09:33.405Z,20.23
2023-05-06T21:12:04.566Z,19.20
2023-05-06T21:14:35.358Z,24.30
2023-05-06T21:17:05.864Z,23.73
2023-05-06T21:19:37.387Z,21.70
2023-05-06T21:22:08.261Z,21.27
2023-05-06T21:24:40.277Z,19.60
2023-05-06T21:27:12.375Z,21.10
2023-05-06T21:29:43.088Z,21.42
2023-05-06T21:32:14.126Z,20.50
2023-05-06T21:37:15.706Z,19.95
2023-05-06T21:39:46.385Z,20.55
2023-05-06T21:42:17.171Z,21.30
2023-05-06T21:44:48.110Z,22.40
2023-05-06T21:47:18.632Z,22.70
2023-05-06T21:49:50.461Z,20.87
2023-05-06T21:52:21.760Z,21.60
2023-05-06T21:54:52.929Z,20.88
2023-05-06T21:57:23.778Z,22.02
2023-05-06T21:59:54.432Z,22.02
2023-05-06T22:02:25.263Z,22.30
2023-05-06T22:04:55.747Z,21.88
2023-05-06T22:07:26.687Z,20.80
2023-05-06T22:09:57.253Z,20.75
2023-05-06T22:12:28.948Z,21.50
2023-05-06T22:15:00.986Z,22.02
2023-05-06T22:17:31.908Z,21.25
2023-05-06T22:20:05.157Z,21.77
2023-05-06T22:22:36.487Z,22.65
2023-05-06T22:25:07.947Z,20.35
2023-05-06T22:27:39.506Z,20.13
2023-05-06T22:30:11.291Z,21.33
2023-05-06T22:32:42.341Z,22.30
2023-05-06T22:35:13.622Z,22.45
2023-05-06T22:37:44.441Z,20.98
2023-05-06T22:40:15.813Z,25.33
2023-05-06T22:42:46.300Z,25.25
2023-05-06T22:45:16.652Z,23.55
2023-05-06T22:47:47.866Z,20.13
2023-05-06T22:52:49.314Z,22.02
2023-05-06T22:55:19.859Z,25.02
2023-05-06T22:57:54.475Z,21.55
2023-05-06T23:00:25.185Z,23.10
2023-05-06T23:02:55.571Z,23.13
2023-05-06T23:05:26.618Z,22.48
2023-05-06T23:07:58.276Z,21.98
2023-05-06T23:10:31.369Z,23.05
2023-05-06T23:13:05.878Z,22.17
2023-05-06T23:15:36.537Z,21.95
2023-05-06T23:18:07.757Z,21.33
2023-05-06T23:20:38.893Z,22.45
2023-05-06T23:23:12.970Z,22.63
2023-05-06T23:25:43.962Z,22.55
2023-05-06T23:28:14.453Z,22.50
2023-05-06T23:30:46.958Z,22.98
2023-05-06T23:33:17.381Z,23.80
2023-05-06T23:35:48.031Z,23.48
2023-05-06T23:38:18.824Z,22.43
2023-05-06T23:40:49.452Z,22.05
2023-05-06T23:43:20.499Z,22.35
2023-05-06T23:45:52.502Z,23.02
2023-05-06T23:48:23.644Z,25.23
2023-05-06T23:50:53.955Z,22.35
2023-05-06T23:53:25.093Z,23.37
2023-05-06T23:58:27.186Z,22.48
